createdAt,value
2022-08-26T00:01:18.845Z,181.07
2022-08-26T00:03:56.563Z,234.98
2022-08-26T00:06:23.810Z,278.05
2022-08-26T00:08:50.943Z,189.40
2022-08-26T00:11:26.715Z,218.85
2022-08-26T00:13:55.609Z,159.18
2022-08-26T00:16:28.167Z,274.88
2022-08-26T00:21:22.468Z,207.63
2022-08-26T00:23:50.438Z,208.85
2022-08-26T00:26:17.434Z,222.55
2022-08-26T00:28:44.957Z,230.23
2022-08-26T00:31:12.005Z,235.88
2022-08-26T00:33:40.067Z,240.43
2022-08-26T00:36:07.976Z,335.55
2022-08-26T00:38:47.149Z,282.73
2022-08-26T00:41:14.138Z,356.30
2022-08-26T00:43:47.511Z,322.65
2022-08-26T00:46:22.702Z,384.70
2022-08-26T00:48:53.556Z,368.17
2022-08-26T00:51:23.932Z,335.90
2022-08-26T00:53:58.305Z,411.05
2022-08-26T00:56:30.189Z,245.45
2022-08-26T00:58:59.426Z,236.80
2022-08-26T01:01:28.344Z,313.52
2022-08-26T01:03:58.064Z,399.25
2022-08-26T01:06:25.160Z,395.73
2022-08-26T01:08:53.426Z,258.27
2022-08-26T01:11:20.984Z,406.15
2022-08-26T01:13:49.095Z,377.42
2022-08-26T01:16:17.243Z,378.38
2022-08-26T01:18:46.859Z,332.40
2022-08-26T01:21:27.226Z,463.25
2022-08-26T01:23:57.397Z,370.25
2022-08-26T01:26:30.806Z,365.40
2022-08-26T01:29:01.412Z,444.75
2022-08-26T01:31:32.680Z,330.00
2022-08-26T01:34:28.205Z,250.93
2022-08-26T01:37:02.404Z,243.15
2022-08-26T01:39:31.196Z,256.77
2022-08-26T01:41:59.053Z,227.35
2022-08-26T01:44:33.098Z,299.92
2022-08-26T01:47:00.504Z,244.07
2022-08-26T01:49:28.073Z,255.07
2022-08-26T01:51:59.372Z,361.27
2022-08-26T01:54:26.575Z,323.17
2022-08-26T01:56:55.216Z,509.67
2022-08-26T01:59:23.913Z,303.95
2022-08-26T02:01:51.698Z,222.15
2022-08-26T02:04:28.248Z,438.20
2022-08-26T02:06:56.304Z,375.77
2022-08-26T02:09:24.485Z,294.73
2022-08-26T02:11:52.465Z,342.17
2022-08-26T02:14:26.835Z,378.58
2022-08-26T02:16:55.393Z,327.90
2022-08-26T02:19:26.522Z,361.45
2022-08-26T02:21:53.943Z,408.90
2022-08-26T02:24:24.693Z,365.02
2022-08-26T02:26:58.771Z,234.23
2022-08-26T02:29:31.638Z,339.58
2022-08-26T02:31:59.240Z,405.73
2022-08-26T02:34:32.361Z,323.80
2022-08-26T02:37:02.200Z,227.63
2022-08-26T02:39:31.940Z,457.15
2022-08-26T02:41:59.265Z,491.08
2022-08-26T02:44:27.359Z,322.42
2022-08-26T02:46:55.073Z,230.43
2022-08-26T02:49:23.728Z,412.23
2022-08-26T02:51:50.904Z,362.40
2022-08-26T02:54:21.354Z,397.20
2022-08-26T02:56:48.696Z,583.78
2022-08-26T02:59:15.647Z,308.90
2022-08-26T03:01:42.938Z,438.02
2022-08-26T03:04:11.643Z,401.27
2022-08-26T03:06:39.288Z,351.08
2022-08-26T03:09:08.745Z,237.98
2022-08-26T03:11:36.691Z,417.45
2022-08-26T03:14:03.946Z,258.00
2022-08-26T03:16:33.073Z,370.75
2022-08-26T03:19:01.092Z,451.92
2022-08-26T03:21:27.954Z,375.27
2022-08-26T03:23:55.154Z,400.85
2022-08-26T03:26:26.145Z,432.92
2022-08-26T03:29:12.087Z,442.52
2022-08-26T03:31:39.374Z,340.15
2022-08-26T03:34:07.005Z,351.08
2022-08-26T03:36:35.180Z,381.02
2022-08-26T03:39:02.901Z,390.00
2022-08-26T03:41:32.632Z,432.92
2022-08-26T03:44:01.691Z,553.58
2022-08-26T03:46:29.084Z,472.27
2022-08-26T03:48:57.825Z,355.52
2022-08-26T03:51:25.957Z,320.45
2022-08-26T03:53:53.646Z,212.52
2022-08-26T03:56:20.754Z,379.80
2022-08-26T03:58:47.651Z,276.15
2022-08-26T04:01:16.257Z,391.05
2022-08-26T04:04:02.044Z,385.63
2022-08-26T04:06:36.330Z,337.95
2022-08-26T04:09:13.581Z,402.77
2022-08-26T04:11:43.321Z,357.65
2022-08-26T04:14:17.765Z,428.67
2022-08-26T04:16:48.126Z,318.20
2022-08-26T04:19:15.994Z,318.83
2022-08-26T04:21:44.160Z,380.42
2022-08-26T04:24:12.681Z,461.70
2022-08-26T04:26:42.867Z,526.80
2022-08-26T04:29:14.298Z,599.50
2022-08-26T04:31:41.375Z,494.17
2022-08-26T04:34:08.551Z,380.25
2022-08-26T04:36:38.582Z,443.10
2022-08-26T04:39:05.650Z,468.35
2022-08-26T04:41:33.588Z,409.83
2022-08-26T04:44:02.425Z,381.85
2022-08-26T04:46:30.023Z,361.80
2022-08-26T04:48:57.024Z,370.88
2022-08-26T04:51:28.129Z,457.00
2022-08-26T04:53:59.055Z,483.13
2022-08-26T04:56:32.646Z,427.35
2022-08-26T04:59:01.577Z,484.92
2022-08-26T05:01:31.595Z,605.63
2022-08-26T05:03:59.234Z,775.50
2022-08-26T05:06:28.139Z,469.90
2022-08-26T05:08:55.117Z,417.45
2022-08-26T05:11:22.235Z,480.02
2022-08-26T05:13:49.473Z,458.85
2022-08-26T05:16:17.252Z,478.60
2022-08-26T05:18:45.707Z,485.88
2022-08-26T05:21:22.906Z,449.42
2022-08-26T05:23:55.065Z,585.95
2022-08-26T05:26:24.554Z,496.88
2022-08-26T05:28:54.871Z,499.98
2022-08-26T05:31:32.566Z,555.00
2022-08-26T05:34:00.664Z,441.63
2022-08-26T05:36:33.514Z,469.20
2022-08-26T05:39:01.771Z,505.45
2022-08-26T05:41:36.307Z,324.85
2022-08-26T05:44:06.796Z,345.20
2022-08-26T05:46:34.654Z,424.40
2022-08-26T05:49:02.558Z,414.85
2022-08-26T05:51:30.860Z,342.73
2022-08-26T05:53:58.483Z,488.08
2022-08-26T05:56:27.657Z,301.52
2022-08-26T05:58:56.300Z,350.30
2022-08-26T06:01:27.501Z,335.95
2022-08-26T06:04:01.561Z,252.45
2022-08-26T06:06:34.643Z,302.27
2022-08-26T06:09:05.307Z,348.60
2022-08-26T06:11:33.402Z,230.45
2022-08-26T06:14:04.129Z,293.10
2022-08-26T06:16:34.737Z,277.83
2022-08-26T06:19:03.553Z,245.60
2022-08-26T06:21:41.199Z,244.95
2022-08-26T06:24:31.253Z,295.05
2022-08-26T06:27:01.614Z,263.92
2022-08-26T06:29:31.185Z,274.67
2022-08-26T06:31:58.531Z,262.80
2022-08-26T06:34:29.874Z,239.82
2022-08-26T06:37:01.167Z,106.63
2022-08-26T06:39:30.815Z,113.53
2022-08-26T06:41:59.177Z,119.30
2022-08-26T06:44:26.920Z,95.72
2022-08-26T06:46:54.191Z,102.00
2022-08-26T06:49:26.910Z,96.10
2022-08-26T06:52:00.830Z,125.38
2022-08-26T06:54:30.436Z,97.90
2022-08-26T06:56:57.649Z,80.50
2022-08-26T06:59:25.343Z,71.28
2022-08-26T07:01:53.548Z,75.13
2022-08-26T07:04:22.396Z,72.65
2022-08-26T07:06:52.867Z,66.85
2022-08-26T07:09:22.583Z,62.67
2022-08-26T07:11:51.402Z,60.28
2022-08-26T07:14:21.089Z,56.25
2022-08-26T07:16:49.902Z,49.72
2022-08-26T07:19:30.209Z,45.53
2022-08-26T07:22:03.510Z,39.83
2022-08-26T07:24:35.348Z,47.42
2022-08-26T07:29:36.611Z,42.38
2022-08-26T07:32:04.172Z,44.80
2022-08-26T07:34:33.171Z,42.35
2022-08-26T07:37:01.110Z,38.40
2022-08-26T07:39:31.549Z,43.00
2022-08-26T07:42:01.464Z,51.42
2022-08-26T07:44:35.241Z,44.40
2022-08-26T07:47:02.331Z,39.55
2022-08-26T07:49:29.705Z,41.63
2022-08-26T07:51:57.091Z,45.25
2022-08-26T07:54:26.767Z,35.45
2022-08-26T07:56:54.821Z,42.28
2022-08-26T07:59:23.581Z,39.97
2022-08-26T08:01:51.012Z,41.45
2022-08-26T08:04:25.525Z,38.40
2022-08-26T08:06:54.041Z,34.97
2022-08-26T08:09:22.381Z,36.72
2022-08-26T08:11:49.989Z,35.97
2022-08-26T08:14:18.691Z,29.38
2022-08-26T08:16:51.134Z,28.95
2022-08-26T08:19:21.893Z,27.85
2022-08-26T08:21:49.329Z,34.35
2022-08-26T08:24:16.383Z,36.63
2022-08-26T08:26:43.561Z,37.95
2022-08-26T08:29:12.503Z,42.05
2022-08-26T08:31:56.739Z,45.65
2022-08-26T08:34:28.024Z,38.67
2022-08-26T08:36:56.364Z,40.05
2022-08-26T08:39:23.951Z,34.83
2022-08-26T08:42:23.535Z,33.10
2022-08-26T08:44:52.814Z,34.42
2022-08-26T08:47:29.601Z,34.65
2022-08-26T08:50:00.391Z,38.22
2022-08-26T08:52:33.331Z,33.70
2022-08-26T08:55:01.455Z,35.08
2022-08-26T08:57:38.961Z,30.27
2022-08-26T09:00:12.050Z,41.20
2022-08-26T09:02:57.101Z,33.42
2022-08-26T09:05:30.040Z,30.10
2022-08-26T09:08:06.605Z,32.80
2022-08-26T09:10:56.126Z,32.95
2022-08-26T09:13:25.308Z,31.88
2022-08-26T09:16:15.909Z,28.17
2022-08-26T09:19:07.551Z,30.52
2022-08-26T09:21:34.673Z,26.90
2022-08-26T09:24:01.762Z,18.92
2022-08-26T09:26:30.577Z,27.65
2022-08-26T09:29:03.243Z,29.08
2022-08-26T09:31:33.624Z,22.92
2022-08-26T09:34:25.041Z,22.60
2022-08-26T09:36:56.611Z,40.72
2022-08-26T09:39:38.615Z,27.42
2022-08-26T09:42:21.121Z,24.52
2022-08-26T09:44:54.016Z,18.65
2022-08-26T09:47:48.159Z,18.73
2022-08-26T09:50:38.291Z,20.38
2022-08-26T09:53:21.058Z,18.08
2022-08-26T09:56:12.281Z,16.52
2022-08-26T09:58:42.231Z,17.23
2022-08-26T10:01:16.496Z,19.65
2022-08-26T10:03:44.642Z,18.17
2022-08-26T10:06:17.206Z,19.10
2022-08-26T10:08:48.025Z,19.05
2022-08-26T10:11:19.572Z,18.97
2022-08-26T10:13:51.452Z,18.08
2022-08-26T10:16:24.315Z,16.67
2022-08-26T10:19:11.523Z,15.07
2022-08-26T10:21:45.970Z,15.13
2022-08-26T10:24:23.532Z,16.63
2022-08-26T10:27:16.891Z,15.65
2022-08-26T10:29:48.130Z,9.48
2022-08-26T10:32:40.790Z,8.82
2022-08-26T10:35:13.720Z,14.50
2022-08-26T10:38:11.521Z,11.80
2022-08-26T10:40:46.349Z,16.83
2022-08-26T10:43:21.820Z,15.50
2022-08-26T10:45:54.879Z,10.27
2022-08-26T10:48:35.541Z,11.43
2022-08-26T10:51:04.247Z,14.75
2022-08-26T10:54:01.820Z,9.95
2022-08-26T10:56:37.967Z,12.88
2022-08-26T10:59:04.923Z,13.10
2022-08-26T11:01:58.201Z,11.75
2022-08-26T11:04:47.722Z,19.10
2022-08-26T11:07:47.602Z,17.85
2022-08-26T11:10:16.450Z,19.15
2022-08-26T11:12:45.479Z,13.45
2022-08-26T11:15:26.103Z,18.15
2022-08-26T11:17:55.403Z,13.68
2022-08-26T11:20:42.400Z,10.85
2022-08-26T11:23:12.524Z,14.88
2022-08-26T11:26:35.985Z,14.55
2022-08-26T11:29:03.761Z,16.65
2022-08-26T11:31:50.832Z,10.43
2022-08-26T11:34:57.104Z,10.10
2022-08-26T11:37:32.273Z,10.77
2022-08-26T11:40:01.387Z,8.70
2022-08-26T11:42:42.720Z,11.20
2022-08-26T11:45:34.210Z,3.83
2022-08-26T11:48:26.122Z,8.75
2022-08-26T11:51:13.472Z,10.15
2022-08-26T11:53:44.713Z,12.05
2022-08-26T11:56:28.782Z,9.68
2022-08-26T11:59:01.223Z,11.45
2022-08-26T12:01:37.432Z,14.20
2022-08-26T12:04:07.230Z,9.77
2022-08-26T12:06:45.000Z,9.32
2022-08-26T12:09:22.723Z,10.43
2022-08-26T12:11:49.749Z,11.75
2022-08-26T12:14:20.738Z,8.25
2022-08-26T12:16:48.132Z,7.57
2022-08-26T12:19:28.272Z,11.57
2022-08-26T12:22:20.982Z,8.18
2022-08-26T12:24:51.803Z,6.15
2022-08-26T12:27:23.253Z,10.48
2022-08-26T12:30:19.309Z,11.23
2022-08-26T12:33:22.178Z,9.50
2022-08-26T12:35:56.289Z,9.23
2022-08-26T12:38:25.189Z,30.63
2022-08-26T12:40:54.162Z,8.27
2022-08-26T12:43:43.709Z,10.30
2022-08-26T12:46:18.579Z,9.68
2022-08-26T12:48:48.767Z,8.20
2022-08-26T12:51:22.373Z,8.52
2022-08-26T12:53:49.508Z,13.32
2022-08-26T12:56:43.156Z,7.82
2022-08-26T12:59:25.209Z,16.30
2022-08-26T13:01:53.724Z,11.23
2022-08-26T13:04:41.942Z,9.70
2022-08-26T13:07:23.768Z,46.63
2022-08-26T13:09:56.731Z,12.65
2022-08-26T13:12:33.099Z,14.73
2022-08-26T13:15:01.485Z,9.65
2022-08-26T13:17:29.841Z,18.48
2022-08-26T13:20:03.246Z,7.15
2022-08-26T13:22:31.277Z,5.25
2022-08-26T13:24:58.364Z,8.70
2022-08-26T13:27:26.540Z,8.82
2022-08-26T13:29:54.332Z,7.22
2022-08-26T13:32:23.063Z,10.10
2022-08-26T13:34:55.921Z,9.88
2022-08-26T13:37:34.294Z,12.65
2022-08-26T13:40:04.606Z,4.25
2022-08-26T13:42:31.799Z,8.93
2022-08-26T13:44:59.801Z,17.27
2022-08-26T13:47:28.094Z,13.43
2022-08-26T13:49:56.408Z,9.48
2022-08-26T13:52:25.497Z,9.80
2022-08-26T13:55:00.344Z,12.95
2022-08-26T13:57:28.618Z,12.75
2022-08-26T13:59:57.230Z,6.22
2022-08-26T14:02:24.373Z,16.45
2022-08-26T14:04:53.798Z,6.68
2022-08-26T14:07:21.032Z,5.30
2022-08-26T14:09:48.282Z,13.90
2022-08-26T14:12:15.399Z,15.05
2022-08-26T14:14:42.819Z,4.70
2022-08-26T14:17:10.204Z,6.00
2022-08-26T14:19:37.661Z,9.10
2022-08-26T14:22:05.001Z,14.65
2022-08-26T14:24:32.337Z,10.52
2022-08-26T14:26:59.581Z,6.80
2022-08-26T14:29:26.948Z,7.55
2022-08-26T14:31:55.414Z,10.23
2022-08-26T14:34:22.549Z,8.07
2022-08-26T14:36:49.628Z,13.55
2022-08-26T14:39:16.686Z,8.98
2022-08-26T14:41:53.853Z,5.95
2022-08-26T14:44:27.044Z,14.52
2022-08-26T14:46:54.959Z,15.48
2022-08-26T14:49:24.021Z,11.80
2022-08-26T14:51:51.063Z,12.32
2022-08-26T14:54:18.742Z,12.13
2022-08-26T14:56:51.930Z,11.15
2022-08-26T14:59:23.519Z,41.65
2022-08-26T15:01:50.721Z,11.23
2022-08-26T15:04:18.836Z,9.40
2022-08-26T15:06:46.281Z,7.30
2022-08-26T15:09:14.449Z,7.50
2022-08-26T15:11:41.685Z,10.07
2022-08-26T15:14:19.033Z,12.02
2022-08-26T15:16:51.634Z,6.00
2022-08-26T15:19:20.016Z,8.05
2022-08-26T15:21:47.868Z,10.32
2022-08-26T15:24:18.985Z,5.22
2022-08-26T15:26:48.123Z,14.27
2022-08-26T15:29:15.658Z,13.40
2022-08-26T15:31:43.206Z,6.38
2022-08-26T15:34:16.167Z,4.82
2022-08-26T15:36:45.961Z,6.22
2022-08-26T15:39:13.714Z,7.00
2022-08-26T15:41:41.421Z,7.22
2022-08-26T15:44:11.708Z,11.25
2022-08-26T15:46:39.307Z,12.30
2022-08-26T15:49:07.425Z,13.55
2022-08-26T15:51:45.520Z,13.68
2022-08-26T15:54:14.342Z,9.23
2022-08-26T15:56:41.445Z,7.38
2022-08-26T15:59:11.930Z,15.77
2022-08-26T16:01:40.005Z,14.40
2022-08-26T16:04:07.192Z,7.15
2022-08-26T16:06:36.952Z,7.43
2022-08-26T16:09:05.651Z,5.40
2022-08-26T16:11:33.727Z,12.63
2022-08-26T16:14:00.771Z,12.02
2022-08-26T16:16:27.855Z,16.25
2022-08-26T16:18:55.193Z,13.95
2022-08-26T16:21:24.850Z,7.68
2022-08-26T16:23:51.915Z,11.27
2022-08-26T16:26:22.439Z,9.32
2022-08-26T16:28:49.598Z,10.30
2022-08-26T16:31:17.270Z,9.13
2022-08-26T16:33:44.417Z,9.73
2022-08-26T16:36:11.662Z,6.10
2022-08-26T16:38:39.511Z,10.35
2022-08-26T16:41:07.266Z,7.88
2022-08-26T16:43:35.294Z,8.85
2022-08-26T16:46:02.477Z,9.32
2022-08-26T16:48:29.507Z,15.90
2022-08-26T16:50:56.590Z,11.85
2022-08-26T16:53:23.902Z,6.43
2022-08-26T16:55:51.205Z,11.88
2022-08-26T16:58:21.150Z,16.95
2022-08-26T17:00:49.472Z,17.65
2022-08-26T17:03:16.944Z,12.25
2022-08-26T17:05:44.657Z,16.65
2022-08-26T17:08:14.531Z,12.63
2022-08-26T17:10:51.819Z,11.30
2022-08-26T17:13:35.381Z,22.35
2022-08-26T17:16:05.112Z,18.23
2022-08-26T17:18:33.674Z,17.58
2022-08-26T17:21:03.304Z,27.42
2022-08-26T17:23:30.417Z,51.53
2022-08-26T17:25:57.481Z,20.90
2022-08-26T17:28:24.422Z,18.02
2022-08-26T17:30:51.415Z,15.20
2022-08-26T17:33:24.400Z,13.57
2022-08-26T17:35:53.010Z,14.18
2022-08-26T17:38:21.321Z,11.43
2022-08-26T17:40:50.278Z,13.65
2022-08-26T17:43:18.279Z,16.25
2022-08-26T17:45:45.429Z,17.35
2022-08-26T17:48:12.602Z,10.45
2022-08-26T17:50:41.286Z,15.05
2022-08-26T17:53:08.495Z,11.82
2022-08-26T17:55:41.885Z,14.15
2022-08-26T17:58:12.233Z,10.30
2022-08-26T18:00:46.239Z,10.05
2022-08-26T18:03:13.702Z,18.50
2022-08-26T18:05:41.898Z,10.82
2022-08-26T18:08:09.774Z,15.15
2022-08-26T18:10:36.704Z,11.63
2022-08-26T18:13:03.733Z,17.27
2022-08-26T18:15:30.701Z,16.67
2022-08-26T18:17:57.746Z,9.93
2022-08-26T18:20:24.704Z,22.95
2022-08-26T18:22:51.629Z,18.08
2022-08-26T18:25:19.064Z,15.93
2022-08-26T18:27:46.072Z,15.45
2022-08-26T18:30:16.993Z,12.10
2022-08-26T18:32:44.531Z,17.00
2022-08-26T18:35:11.818Z,15.63
2022-08-26T18:37:39.425Z,15.65
2022-08-26T18:40:09.335Z,11.95
2022-08-26T18:42:36.971Z,19.50
2022-08-26T18:45:05.947Z,16.48
2022-08-26T18:47:33.317Z,18.65
2022-08-26T18:50:04.645Z,14.80
2022-08-26T18:52:32.447Z,11.73
2022-08-26T18:54:59.530Z,15.70
2022-08-26T18:57:26.475Z,17.48
2022-08-26T18:59:53.519Z,20.08
2022-08-26T19:02:20.594Z,14.57
2022-08-26T19:04:47.687Z,16.10
2022-08-26T19:07:14.626Z,10.93
2022-08-26T19:09:41.520Z,13.15
2022-08-26T19:12:08.838Z,21.08
2022-08-26T19:14:36.714Z,15.60
2022-08-26T19:17:04.298Z,18.02
2022-08-26T19:19:31.805Z,14.77
2022-08-26T19:21:58.999Z,23.50
2022-08-26T19:24:27.439Z,19.83
2022-08-26T19:26:59.197Z,16.80
2022-08-26T19:29:31.900Z,22.48
2022-08-26T19:31:59.396Z,18.92
2022-08-26T19:34:26.582Z,14.02
2022-08-26T19:36:56.876Z,18.95
2022-08-26T19:39:24.772Z,16.08
2022-08-26T19:41:52.198Z,13.88
2022-08-26T19:44:39.804Z,22.90
2022-08-26T19:47:09.007Z,15.35
2022-08-26T19:49:36.575Z,17.17
2022-08-26T19:52:04.027Z,16.77
2022-08-26T19:54:31.303Z,18.48
2022-08-26T19:56:58.287Z,16.45
2022-08-26T19:59:25.297Z,16.13
2022-08-26T20:02:01.187Z,19.50
2022-08-26T20:04:30.220Z,20.60
2022-08-26T20:06:58.823Z,24.02
2022-08-26T20:09:32.645Z,23.83
2022-08-26T20:12:00.077Z,16.08
2022-08-26T20:14:27.686Z,20.92
2022-08-26T20:16:54.773Z,15.38
2022-08-26T20:19:40.388Z,18.20
2022-08-26T20:22:07.484Z,14.23
2022-08-26T20:24:35.655Z,19.27
2022-08-26T20:27:07.673Z,18.98
2022-08-26T20:29:36.025Z,30.73
2022-08-26T20:32:06.159Z,22.88
2022-08-26T20:34:34.023Z,19.15
2022-08-26T20:37:01.062Z,22.35
2022-08-26T20:39:30.164Z,20.70
2022-08-26T20:41:58.159Z,22.98
2022-08-26T20:44:25.694Z,20.08
2022-08-26T20:46:52.852Z,19.23
2022-08-26T20:49:20.012Z,20.42
2022-08-26T20:51:51.489Z,21.25
2022-08-26T20:54:22.185Z,20.75
2022-08-26T20:56:52.204Z,18.42
2022-08-26T20:59:21.096Z,24.30
2022-08-26T21:01:48.567Z,20.50
2022-08-26T21:04:18.493Z,22.10
2022-08-26T21:06:49.031Z,20.02
2022-08-26T21:09:23.931Z,22.05
2022-08-26T21:11:51.804Z,24.25
2022-08-26T21:14:20.585Z,26.67
2022-08-26T21:16:47.890Z,30.00
2022-08-26T21:19:17.655Z,27.05
2022-08-26T21:21:45.884Z,33.83
2022-08-26T21:24:13.444Z,41.13
2022-08-26T21:26:41.189Z,31.75
2022-08-26T21:29:10.027Z,27.10
2022-08-26T21:31:40.968Z,29.08
2022-08-26T21:34:09.508Z,30.88
2022-08-26T21:36:36.494Z,29.45
2022-08-26T21:39:06.998Z,31.52
2022-08-26T21:41:38.097Z,26.23
2022-08-26T21:44:05.155Z,27.42
2022-08-26T21:46:32.178Z,27.95
2022-08-26T21:49:02.293Z,26.98
2022-08-26T21:51:32.444Z,21.33
2022-08-26T21:54:01.087Z,26.25
2022-08-26T21:56:31.324Z,30.15
2022-08-26T21:58:59.360Z,19.85
2022-08-26T22:01:29.561Z,22.77
2022-08-26T22:03:56.762Z,32.45
2022-08-26T22:06:26.304Z,34.88
2022-08-26T22:08:53.658Z,25.13
2022-08-26T22:11:20.830Z,32.80
2022-08-26T22:13:48.762Z,29.35
2022-08-26T22:16:15.983Z,28.17
2022-08-26T22:18:45.845Z,24.50
2022-08-26T22:21:16.964Z,20.48
2022-08-26T22:23:44.685Z,31.45
2022-08-26T22:26:13.421Z,24.38
2022-08-26T22:28:40.475Z,24.40
2022-08-26T22:31:09.441Z,19.17
2022-08-26T22:33:36.446Z,23.58
2022-08-26T22:36:04.370Z,22.15
2022-08-26T22:38:31.609Z,27.02
2022-08-26T22:41:00.369Z,24.60
2022-08-26T22:43:28.870Z,26.10
2022-08-26T22:45:56.255Z,22.27
2022-08-26T22:48:25.034Z,22.10
2022-08-26T22:50:57.194Z,21.50
2022-08-26T22:53:27.151Z,18.88
2022-08-26T22:55:54.520Z,18.58
2022-08-26T22:58:30.407Z,18.05
2022-08-26T23:00:59.351Z,17.80
2022-08-26T23:03:27.123Z,21.05
2022-08-26T23:05:55.577Z,20.98
2022-08-26T23:08:24.721Z,18.60
2022-08-26T23:10:52.412Z,15.43
2022-08-26T23:13:19.884Z,18.30
2022-08-26T23:15:47.104Z,25.45
2022-08-26T23:18:15.038Z,21.52
2022-08-26T23:20:42.612Z,19.73
2022-08-26T23:23:09.699Z,18.50
2022-08-26T23:25:36.770Z,15.65
2022-08-26T23:28:04.626Z,15.32
2022-08-26T23:30:33.048Z,18.38
2022-08-26T23:33:00.402Z,21.35
2022-08-26T23:35:28.223Z,21.00
2022-08-26T23:37:55.932Z,17.23
2022-08-26T23:40:34.083Z,21.60
2022-08-26T23:43:06.168Z,18.60
2022-08-26T23:45:34.358Z,16.73
2022-08-26T23:48:01.652Z,18.45
2022-08-26T23:50:48.791Z,14.07
2022-08-26T23:53:21.379Z,15.43
2022-08-26T23:55:51.841Z,17.15
2022-08-26T23:58:20.822Z,12.77
